Date,TemperatureHighF,TemperatureAvgF,TemperatureLowF,DewpointHighF,DewpointAvgF,DewpointLowF,HumidityHigh,HumidityAvg,HumidityLow,PressureMaxIn,PressureMinIn,WindSpeedMaxMPH,WindSpeedAvgMPH,GustSpeedMaxMPH,PrecipitationSumIn
2013-3-1,32,29,24,25,15,11,83,57,46,30.18,30.08,24,8,24,0.02
2013-3-2,32,26,14,15,6,-10,53,41,19,30.26,30.17,15,7,15,0.06
2013-3-3,38,23,7,11,-2,-12,65,38,19,30.18,30.04,12,1,12,0.02
2013-3-4,38,29,23,21,13,-7,67,51,25,30.06,29.89,28,6,29,0.02
2013-3-5,31,29,27,24,21,18,83,73,63,30.14,29.87,28,5,28,0.02
2013-3-6,27,24,19,18,13,10,69,61,56,30.34,30.13,23,5,23,0.02
2013-3-7,37,27,20,18,13,9,66,57,42,30.40,30.33,13,1,13,0.04
2013-3-8,45,33,22,26,20,14,71,59,40,30.40,30.20,28,4,28,0.02
2013-3-9,42,38,35,40,32,25,91,81,67,30.20,29.76,23,2,24,0.39
2013-3-10,46,43,36,45,42,35,96,95,89,29.76,29.56,20,0,20,0.98
2013-3-11,36,32,28,35,29,16,96,88,62,29.88,29.60,28,4,28,0.04
2013-3-12,34,28,23,27,17,10,79,65,48,30.12,29.88,28,8,28,0.00
2013-3-13,34,26,19,11,3,-9,62,42,19,30.35,30.12,26,5,27,0.00
2013-3-14,49,34,21,23,13,3,61,45,19,30.34,30.05,20,2,20,0.02
2013-3-15,47,34,30,31,26,22,79,72,43,30.06,29.71,28,2,28,0.00
2013-3-16,39,34,30,31,24,15,89,69,47,30.14,29.71,28,1,28,0.00
2013-3-17,37,31,24,19,12,-2,58,46,19,30.19,29.91,25,6,25,0.00
2013-3-18,36,29,19,31,18,-1,84,66,40,29.91,29.67,28,6,28,0.06
2013-3-19,33,23,14,8,-4,-12,46,33,19,30.16,29.89,28,9,28,0.02
2013-3-20,25,18,11,7,-9,-12,50,27,19,30.21,30.09,33,10,33,0.00
2013-3-21,34,21,-4,11,-7,-12,52,30,19,30.11,30.00,17,2,17,0.00
2013-3-22,44,30,16,10,1,-9,57,32,19,30.07,29.99,12,1,12,0.00
2013-3-23,46,35,26,18,5,-3,54,30,19,30.11,29.98,20,2,20,0.00
2013-3-24,33,30,28,26,23,10,87,75,37,30.02,29.74,28,1,28,0.04
2013-3-25,36,31,28,25,18,14,87,58,42,30.15,29.83,27,5,27,0.12
2013-3-26,40,33,24,20,14,-1,65,48,19,30.29,30.14,27,5,27,0.02
2013-3-27,48,37,28,21,11,0,66,38,19,30.35,30.27,15,2,15,0.00
2013-3-28,55,41,26,25,15,6,71,39,19,30.36,30.24,28,1,28,0.00
2013-3-29,59,47,33,28,20,11,66,38,19,30.30,30.19,12,1,12,0.00
2013-3-30,56,47,38,42,31,0,82,54,40,30.20,29.87,44,3,44,0.00
2013-3-31,55,46,34,44,30,12,96,61,19,29.99,29.82,29,5,29,0.00